Latest Coastal Weather Observations for Portland Airport

IDV60701

Issued at 3:51 am EDT Thursday 5 March 2015 (issued every 10 minutes, with the page automatically refreshed every 10 minutes)

About coastal observations | Map of coastal stations | Coastal observations for VIC | Marine services | Other Formats
Station Details ID: 090171 Name: CASHMORE AIRPORT Lat: -38.31 Lon: 141.47 Height: 80.9 m
Data from the previous 72 hours. | See also: Recent months at Portland Airport
Date/Time
EDT
Temp

°C
Wind Pressure Rain
since 9am
mm
Weather Cloud Vis
km
Sea
Height
m
Swell
Dir
 
Speed
knots
Gust
knots
hPa Trend Height
m
Period
s
Dir
05/03:30am 12.4 WSW 18 30 1015.4 - 5.2 - Partly cloudy 10 - - - -
05/03:13am 12.4 SW 16 26 1015.4 - 5.2 - Partly cloudy 10 - - - -
05/03:00am 12.7 SW 19 28 1015.4 - 5.2 - Cloudy 10 - - - -
05/02:37am 12.9 SW 18 28 1015.2 - 5.2 - Partly cloudy 10 - - - -
05/02:30am 13.1 SW 19 28 1015.0 - 5.2 - Partly cloudy 10 - - - -
05/02:00am 13.0 SW 20 32 1014.9 - 5.2 - Partly cloudy 10 - - - -
05/01:30am 11.9 WSW 24 44 1014.5 - 5.2 - Partly cloudy 10 - - - -
05/01:00am 13.8 SW 23 36 1013.5 - 5.2 - Partly cloudy 10 - - - -
05/12:30am 14.3 WSW 22 35 1012.7 - 5.2 - Partly cloudy 10 - - - -
05/12:13am 14.4 WSW 21 31 1012.3 - 5.2 - Partly cloudy 10 - - - -
05/12:00am 15.0 WSW 19 28 1012.1 - 5.2 - Mostly clear 14 - - - -
 
Date/Time
EDT
Temp

°C
Wind Pressure Rain
since 9am
mm
Weather Cloud Vis
km
Sea
Height
m
Swell
Dir
 
Speed
knots
Gust
knots
hPa Trend Height
m
Period
s
Dir
04/11:30pm 14.4 WSW 22 35 1011.9 - 5.2 - Partly cloudy 10 - - - -
04/11:00pm 14.3 WSW 22 37 1011.7 - 5.2 - Partly cloudy 8 - - - -
04/10:55pm 15.4 W 20 37 1011.5 - 5.0 - Partly cloudy 10 - - - -
04/10:39pm 14.9 W 17 27 1011.3 - 5.0 - Partly cloudy 10 - - - -
04/10:30pm 14.6 W 16 22 1011.2 - 5.0 - Partly cloudy 10 - - - -
04/10:21pm 14.1 W 18 28 1011.3 - 5.0 - Partly cloudy 10 - - - -
04/10:20pm 14.1 W 19 28 1011.3 - 5.0 - Partly cloudy 10 - - - -
04/10:08pm 13.8 W 23 34 1011.3 - 5.0 - Partly cloudy 4 - - - -
04/10:00pm 13.8 W 23 35 1011.3 - 4.8 - Partly cloudy 1 - - - -
04/09:56pm 15.3 W 20 32 1011.3 - 3.6 - Partly cloudy 2 - - - -
04/09:53pm 15.5 W 20 27 1010.8 - 2.2 - Partly cloudy 4 - - - -
04/09:41pm 15.6 WNW 17 29 1010.8 - 1.6 - Partly cloudy 4 - - - -
04/09:36pm 16.2 WNW 15 22 1010.8 - 0.8 - Partly cloudy 6 - - - -
04/09:30pm 16.4 WNW 15 20 1010.8 - 0.4 - Partly cloudy 10 - - - -
04/09:00pm 15.9 WNW 16 26 1010.7 - 0.4 - Cloudy 10 - - - -
04/08:41pm 15.8 WNW 17 27 1010.6 - 0.4 - Partly cloudy 10 - - - -
04/08:30pm 15.8 WNW 18 26 1010.7 - 0.4 - Partly cloudy 10 - - - -
04/08:20pm 15.6 WNW 17 27 1010.7 - 0.4 - Partly cloudy 10 - - - -
04/08:00pm 15.4 WNW 16 24 1011.0 - 0.4 - Partly cloudy 10 - - - -
04/07:37pm 15.6 WNW 18 25 1010.7 - 0.4 - Partly cloudy 10 - - - -
04/07:30pm 15.6 WNW 17 25 1010.8 - 0.4 - Partly cloudy 8 - - - -
04/07:21pm 15.7 WNW 18 26 1011.0 - 0.4 - Partly cloudy 6 - - - -
04/07:00pm 16.6 WNW 19 30 1011.0 - 0.4 - Partly cloudy 10 - - - -
04/06:40pm 16.7 WNW 19 29 1011.2 - 0.4 - Partly cloudy 10 - - - -
04/06:30pm 16.7 WNW 19 28 1011.1 - 0.4 - Partly cloudy 10 - - - -
04/06:07pm 16.6 WNW 19 29 1011.4 - 0.4 - Partly cloudy 10 - - - -
04/06:00pm 17.1 WNW 20 29 1011.5 - 0.4 - Mostly cloudy 10 - - - -
04/05:34pm 18.3 WNW 20 30 1011.5 - 0.4 - Partly cloudy 10 - - - -
04/05:30pm 17.7 WNW 22 31 1011.5 - 0.4 - Partly cloudy 10 - - - -
04/05:03pm 18.0 WNW 20 31 1011.7 - 0.4 - Partly cloudy 10 - - - -
04/05:00pm 18.1 WNW 18 24 1011.9 - 0.4 - Partly cloudy 10 - - - -
04/04:49pm 17.5 W 20 30 1012.0 - 0.4 - Partly cloudy 10 - - - -
04/04:30pm 18.3 WNW 20 27 1012.1 - 0.4 - Partly cloudy 10 - - - -
04/04:16pm 18.6 WNW 20 30 1012.0 - 0.4 - Cloudy 10 - - - -
04/04:00pm 19.2 WNW 20 29 1012.3 - 0.4 - Partly cloudy 10 - - - -
04/03:30pm 19.1 WNW 23 33 1012.6 - 0.4 - Partly cloudy 10 - - - -
04/03:05pm 19.3 WNW 21 31 1012.9 - 0.4 - Partly cloudy 10 - - - -
04/03:00pm 19.4 WNW 24 31 1012.9 - 0.4 - Partly cloudy 10 - - - -
04/02:44pm 19.2 WNW 21 32 1013.0 - 0.4 - Partly cloudy 10 - - - -
04/02:30pm 19.0 WNW 19 28 1013.1 - 0.4 - Partly cloudy 10 - - - -
04/02:28pm 19.7 WNW 19 29 1013.3 - 0.4 - Partly cloudy 10 - - - -
04/02:00pm 18.7 WNW 21 28 1013.5 - 0.4 - Cloudy 10 - - - -
04/01:30pm 18.3 WNW 19 27 1013.7 - 0.4 - Partly cloudy 10 - - - -
04/01:00pm 18.3 WNW 19 27 1014.0 - 0.4 - Partly cloudy 10 - - - -
04/12:30pm 18.9 WNW 17 23 1014.3 - 0.4 - Partly cloudy 10 - - - -
04/12:15pm 17.1 WNW 15 25 1014.5 - 0.4 - Partly cloudy 10 - - - -
04/12:00pm 16.7 WNW 17 23 1014.9 - 0.4 - Cloudy 10 - - - -
04/11:30am 16.9 NW 15 21 1015.0 - 0.4 - Partly cloudy 10 - - - -
04/11:00am 15.7 WNW 14 19 1015.2 - 0.4 - Partly cloudy 10 - - - -
04/10:30am 15.6 WNW 11 15 1015.1 - 0.4 - Partly cloudy 10 - - - -
04/10:00am 14.9 WSW 15 21 1015.6 - 0.0 - Partly cloudy 4 - - - -
04/09:51am 15.1 W 15 23 1015.5 - 0.0 - Partly cloudy 6 - - - -
04/09:30am 15.9 W 11 15 1015.2 - 0.0 - Partly cloudy 10 - - - -
04/09:00am 15.9 W 13 21 1015.1 - 0.0 - Cloudy 10 - - - -
04/08:30am 15.6 W 11 15 1014.9 - 0.0 - Partly cloudy 10 - - - -
04/08:00am 15.6 W 11 15 1014.7 - 0.0 - Partly cloudy 10 - - - -
04/07:30am 15.7 WNW 11 16 1014.2 - 0.0 - Cloudy 10 - - - -
04/07:00am 15.6 W 12 16 1014.2 - 0.0 - Cloudy 10 - - - -
04/06:30am 15.6 W 14 19 1014.3 - 0.0 - Cloudy 10 - - - -
04/06:00am 15.4 WSW 12 16 1014.3 - 0.0 - Cloudy 10 - - - -
04/05:30am 15.2 W 12 17 1014.5 - 0.0 - Partly cloudy 10 - - - -
04/05:00am 15.4 W 13 17 1014.7 - 0.0 - Partly cloudy 10 - - - -
04/04:30am 15.3 W 13 19 1014.8 - 0.0 - Partly cloudy 10 - - - -
04/04:00am 15.1 W 8 12 1015.0 - 0.0 - Cloudy 10 - - - -
04/03:30am 14.7 W 11 16 1015.4 - 0.0 - Partly cloudy 10 - - - -
04/03:00am 14.8 W 11 14 1015.7 - 0.0 - Cloudy 10 - - - -
04/02:30am 14.4 WNW 9 13 1016.1 - 0.0 - Partly cloudy 10 - - - -
04/02:00am 14.0 WNW 9 13 1016.2 - 0.0 - Partly cloudy 10 - - - -
04/01:30am 11.6 NNW 7 8 1016.4 - 0.0 - Partly cloudy 10 - - - -
04/01:00am 11.6 N 6 7 1016.5 - 0.0 - Partly cloudy 10 - - - -
04/12:30am 11.9 WNW 5 7 1016.8 - 0.0 - - 10 - - - -
04/12:00am 12.3 WNW 5 7 1017.2 - 0.0 - - 10 - - - -
 
Date/Time
EDT
Temp

°C
Wind Pressure Rain
since 9am
mm
Weather Cloud Vis
km
Sea
Height
m
Swell
Dir
 
Speed
knots
Gust
knots
hPa Trend Height
m
Period
s
Dir
03/11:30pm 11.9 W 5 6 1017.5 - 0.0 - - 10 - - - -
03/11:00pm 11.5 W 6 7 1017.7 - 0.0 - - 10 - - - -
03/10:30pm 11.9 W 5 6 1017.9 - 0.0 - Partly cloudy 10 - - - -
03/10:00pm 12.2 W 7 8 1017.9 - 0.0 - Partly cloudy 10 - - - -
03/09:30pm 12.6 WNW 5 7 1017.8 - 0.0 - Partly cloudy 10 - - - -
03/09:00pm 12.1 W 4 5 1017.4 - 0.0 - - 9 - - - -
03/08:30pm 13.4 W 5 6 1017.1 - 0.0 - - 10 - - - -
03/08:00pm 15.0 W 6 8 1017.0 - 0.0 - - 10 - - - -
03/07:30pm 16.5 W 9 11 1016.9 - 0.0 - - 10 - - - -
03/07:00pm 17.4 WSW 8 11 1016.8 - 0.0 - Partly cloudy 10 - - - -
03/06:30pm 17.9 WSW 9 13 1016.8 - 0.0 - Partly cloudy 10 - - - -
03/06:00pm 18.5 WSW 11 15 1016.8 - 0.0 - - 10 - - - -
03/05:30pm 19.1 WSW 10 15 1016.6 - 0.0 - - 10 - - - -
03/05:00pm 19.0 WSW 11 16 1016.6 - 0.0 - - 10 - - - -
03/04:30pm 19.3 WSW 10 15 1016.8 - 0.0 - - 10 - - - -
03/04:00pm 19.9 W 10 15 1017.0 - 0.0 - - 10 - - - -
03/03:30pm 19.8 W 11 14 1017.4 - 0.0 - - 10 - - - -
03/03:00pm 19.7 W 10 14 1017.7 - 0.0 - - 10 - - - -
03/02:30pm 19.9 W 10 15 1017.7 - 0.0 - - 10 - - - -
03/02:00pm 19.8 WSW 10 14 1017.9 - 0.0 - - 10 - - - -
03/01:30pm 19.1 WSW 11 15 1018.3 - 0.0 - Partly cloudy 10 - - - -
03/01:00pm 18.7 SW 8 13 1018.6 - 0.0 - Partly cloudy 10 - - - -
03/12:30pm 19.6 WSW 9 13 1018.9 - 0.0 - Partly cloudy 10 - - - -
03/12:00pm 17.9 SSW 7 10 1019.1 - 0.0 - Cloudy 10 - - - -
03/11:30am 17.8 SSW 6 8 1019.1 - 0.0 - Partly cloudy 10 - - - -
03/11:00am 17.8 SSW 6 8 1019.0 - 0.0 - Partly cloudy 10 - - - -
03/10:30am 17.9 S 5 8 1018.7 - 0.0 - Partly cloudy 10 - - - -
03/10:00am 17.8 S 7 10 1018.5 - 0.0 - Partly cloudy 10 - - - -
03/09:30am 16.1 SSE 1 5 1018.4 - 0.0 - Partly cloudy 10 - - - -
03/09:00am 14.0 CALM 0 0 1018.3 - 0.0 - Cloudy 10 - - - -
03/08:30am 12.7 CALM 0 0 1018.0 - 0.0 - Partly cloudy 10 - - - -
03/08:00am 9.9 SSE 1 3 1017.7 - 0.0 - Partly cloudy 10 - - - -
03/07:30am 7.3 SSE 1 4 1017.6 - 0.0 - - 10 - - - -
03/07:00am 8.8 CALM 0 0 1017.1 - 0.0 - - 10 - - - -
03/06:30am 8.6 SSE 1 3 1016.9 - 0.0 - - 10 - - - -
03/06:00am 9.3 SSE 2 5 1016.6 - 0.0 - Partly cloudy 10 - - - -
03/05:30am 8.6 SSE 3 4 1016.5 - 0.0 - Partly cloudy 10 - - - -
03/05:00am 9.6 CALM 0 0 1016.5 - 0.0 - Partly cloudy 10 - - - -
03/04:30am 11.2 CALM 0 0 1016.4 - 0.0 - Partly cloudy 10 - - - -
03/04:00am 11.6 CALM 0 0 1016.4 - 0.0 - Partly cloudy 10 - - - -
03/03:30am 11.3 CALM 0 0 1016.4 - 0.0 - Partly cloudy 10 - - - -
03/03:00am 11.2 CALM 0 0 1016.8 - 0.0 - Partly cloudy 10 - - - -
03/02:30am 10.7 CALM 0 0 1016.9 - 0.0 - Partly cloudy 10 - - - -
03/02:00am 11.7 SSE 3 5 1017.1 - 0.0 - Partly cloudy 10 - - - -
03/01:30am 11.9 SSE 2 3 1017.2 - 0.0 - Partly cloudy 10 - - - -
03/01:00am 11.8 CALM 0 0 1017.1 - 0.0 - Partly cloudy 10 - - - -
03/12:30am 13.0 CALM 0 0 1017.2 - 0.0 - - 10 - - - -
03/12:00am 14.1 SSE 2 4 1017.1 - 0.0 - Mostly cloudy 10 - - - -
 
Date/Time
EDT
Temp

°C
Wind Pressure Rain
since 9am
mm
Weather Cloud Vis
km
Sea
Height
m
Swell
Dir
 
Speed
knots
Gust
knots
hPa Trend Height
m
Period
s
Dir
02/11:30pm 14.5 S 4 6 1017.1 - 0.0 - - 10 - - - -
02/11:00pm 13.9 SSW 2 6 1017.4 - 0.0 - - 10 - - - -
02/10:30pm 13.0 CALM 0 0 1017.0 - 0.0 - - 10 - - - -
02/10:00pm 12.7 SSW 1 4 1017.0 - 0.0 - - 10 - - - -
02/09:30pm 13.4 CALM 0 0 1016.6 - 0.0 - - 10 - - - -
02/09:00pm 14.1 CALM 0 2 1016.4 - 0.0 - Cloudy 10 - - - -
02/08:30pm 15.1 SSW 3 4 1016.2 - 0.0 - - 10 - - - -
02/08:00pm 15.8 SSW 3 5 1015.9 - 0.0 - - 10 - - - -
02/07:30pm 16.3 SSW 3 6 1015.6 - 0.0 - - 10 - - - -
02/07:00pm 16.4 SSW 4 5 1015.5 - 0.0 - - 10 - - - -
02/06:30pm 16.3 SW 6 10 1015.2 - 0.0 - - 10 - - - -
02/06:00pm 16.7 SSW 8 12 1015.2 - 0.0 - Cloudy 10 - - - -
02/05:30pm 17.5 SW 9 13 1015.2 - 0.0 - - 10 - - - -
02/05:00pm 17.1 SSW 8 11 1014.9 - 0.0 - - 10 - - - -
02/04:30pm 19.5 SW 10 14 1014.6 - 0.0 - - 10 - - - -
02/04:00pm 19.8 WSW 11 14 1014.7 - 0.0 - - 10 - - - -
02/03:30pm 19.1 WSW 14 18 1015.1 - 0.0 - - 10 - - - -
02/03:00pm 20.7 W 12 16 1015.2 - 0.0 - Mostly cloudy 10 - - - -
02/02:30pm 20.9 W 11 15 1015.5 - 0.0 - - 10 - - - -
02/02:00pm 19.9 W 11 15 1015.6 - 0.0 - - 10 - - - -
02/01:30pm 20.6 W 10 15 1015.9 - 0.0 - - 10 - - - -
02/01:00pm 20.3 WNW 7 10 1016.4 - 0.0 - - 10 - - - -
02/12:30pm 18.7 NW 6 10 1016.7 - 0.0 - - 10 - - - -
02/12:00pm 18.9 N 7 9 1017.1 - 0.0 - Partly cloudy 10 - - - -
02/11:30am 18.0 ENE 5 8 1017.3 - 0.0 - - 10 - - - -
02/11:00am 17.1 ENE 7 11 1017.4 - 0.0 - - 10 - - - -
02/10:30am 15.5 NE 7 11 1017.5 - 0.0 - - 10 - - - -
02/10:00am 13.2 NE 7 11 1017.7 - 0.0 - - 10 - - - -
02/09:30am 12.8 NE 6 9 1017.7 - 0.0 - - 10 - - - -
02/09:00am 11.9 NE 5 7 1018.1 - 0.0 - Cloudy 10 - - - -
02/08:30am 10.4 NNE 6 7 1018.1 - 0.0 - - 10 - - - -
02/08:00am 8.2 NNE 5 7 1018.0 - 0.0 - - 10 - - - -
02/07:30am 7.1 NE 6 8 1017.7 - 0.0 - - 10 - - - -
02/07:00am 6.8 NNE 6 7 1017.6 - 0.0 - - 10 - - - -
02/06:30am 6.6 NNE 6 7 1017.5 - 0.0 - - 10 - - - -
02/06:00am 5.6 NNE 4 5 1017.5 - 0.0 - - 10 - - - -
02/05:30am 5.8 E 5 6 1017.3 - 0.0 - - 10 - - - -
02/05:00am 6.0 ESE 4 5 1017.3 - 0.0 - - 10 - - - -
02/04:30am 4.2 ESE 3 4 1017.5 - 0.0 - - 10 - - - -
02/04:00am 4.6 ESE 1 4 1017.7 - 0.0 - - 10 - - - -

Other Formats:

Comma delimited format used in spreadsheet applications
http://www.bom.gov.au/fwo/IDV60701/IDV60701.94828.axf

JavaScript Object Notation format (JSON) in row-major order
http://www.bom.gov.au/fwo/IDV60701/IDV60701.94828.json